Time;durP1;ratioP1;P1;durP2;ratioP2;P2;SDS_P1;SDS_P2;PMS_P1;PMS_P2;Temp;Humidity;BMP_temperature;BMP_pressure;BME280_temperature;BME280_humidity;BME280_pressure;Samples;Min_cycle;Max_cycle;Signal;HPM_P1;HPM_P2
2022/11/25 00:00:10;;;;;;;17.35;3.45;;;7.60;99.90;;;;;;5072603;28;20040;-70
2022/11/25 00:02:35;;;;;;;20.27;3.80;;;7.60;99.90;;;;;;5073977;28;20040;-70
2022/11/25 00:05:01;;;;;;;15.45;4.10;;;7.60;99.90;;;;;;5073777;28;20115;-70
2022/11/25 00:07:26;;;;;;;15.70;4.15;;;7.60;99.90;;;;;;5073169;28;20447;-70
2022/11/25 00:09:52;;;;;;;19.30;3.95;;;7.60;99.90;;;;;;5073931;28;20424;-70
2022/11/25 00:12:17;;;;;;;18.90;4.50;;;7.60;99.90;;;;;;5072233;28;20489;-70
2022/11/25 00:14:43;;;;;;;19.67;3.97;;;7.60;99.90;;;;;;5073692;28;20087;-70
2022/11/25 00:17:08;;;;;;;15.02;3.95;;;7.60;99.90;;;;;;5072282;28;20135;-70
2022/11/25 00:19:34;;;;;;;17.05;3.85;;;7.60;99.90;;;;;;5072265;28;20487;-70
2022/11/25 00:21:59;;;;;;;20.70;4.65;;;7.60;99.90;;;;;;5072119;28;20098;-70
2022/11/25 00:24:25;;;;;;;16.70;3.75;;;7.60;99.90;;;;;;5072178;28;20044;-70
2022/11/25 00:26:50;;;;;;;18.25;4.30;;;7.60;99.90;;;;;;5072066;28;20055;-70
2022/11/25 00:29:17;;;;;;;17.10;3.88;;;7.60;99.90;;;;;;5072134;28;20032;-70
2022/11/25 00:31:42;;;;;;;20.75;4.75;;;7.60;99.90;;;;;;5072101;28;20072;-70
2022/11/25 00:34:12;;;;;;;14.63;4.63;;;7.60;99.90;;;;;;5071973;28;20079;-70
2022/11/25 00:36:38;;;;;;;17.95;3.83;;;7.60;99.90;;;;;;5073584;28;20036;-70
2022/11/25 00:39:08;;;;;;;17.40;4.30;;;7.70;99.90;;;;;;5073494;28;20076;-70
2022/11/25 00:44:34;;;;;;;15.95;4.63;;;7.70;99.90;;;;;;5072139;28;20052;-69
2022/11/25 00:47:07;;;;;;;15.27;3.92;;;7.70;99.90;;;;;;5071975;28;20046;-69
2022/11/25 00:49:33;;;;;;;16.02;3.92;;;7.70;99.90;;;;;;5071947;28;20045;-69
2022/11/25 00:51:59;;;;;;;17.30;4.07;;;7.70;99.90;;;;;;5071845;28;20081;-70
2022/11/25 00:54:24;;;;;;;16.02;4.18;;;7.70;99.90;;;;;;5072090;28;20101;-70
2022/11/25 00:56:50;;;;;;;17.08;4.07;;;7.80;99.90;;;;;;5073114;28;20512;-70
2022/11/25 00:59:16;;;;;;;15.07;4.05;;;7.80;99.90;;;;;;5071829;28;20072;-70
2022/11/25 01:01:42;;;;;;;16.60;4.38;;;7.80;99.90;;;;;;5071767;28;20102;-70
2022/11/25 01:04:08;;;;;;;20.27;4.60;;;7.80;99.90;;;;;;5071643;28;20044;-70
2022/11/25 01:06:35;;;;;;;17.92;4.57;;;7.80;99.90;;;;;;5073171;28;20150;-70
2022/11/25 01:09:01;;;;;;;23.85;4.40;;;7.80;99.90;;;;;;5073227;28;20051;-70
2022/11/25 01:11:26;;;;;;;16.92;4.70;;;7.80;99.90;;;;;;5071616;28;20036;-70
2022/11/25 01:13:55;;;;;;;18.38;4.18;;;7.80;99.90;;;;;;5071577;28;20040;-69
2022/11/25 01:16:21;;;;;;;18.23;4.40;;;7.80;99.90;;;;;;5071698;28;20045;-69
2022/11/25 01:18:47;;;;;;;18.95;4.30;;;7.80;99.90;;;;;;5072923;28;20048;-70
2022/11/25 01:21:24;;;;;;;24.13;4.57;;;7.80;99.90;;;;;;5075698;28;20072;-70
2022/11/25 01:23:52;;;;;;;16.25;4.32;;;7.80;99.90;;;;;;5075854;28;20036;-70
2022/11/25 01:26:20;;;;;;;18.10;4.45;;;7.80;99.90;;;;;;5075745;28;20045;-70
2022/11/25 01:28:46;;;;;;;19.95;4.38;;;7.80;99.90;;;;;;5076748;28;20128;-70
2022/11/25 01:31:18;;;;;;;16.60;4.18;;;7.80;99.90;;;;;;5075908;28;20047;-70
2022/11/25 01:33:45;;;;;;;18.13;4.22;;;7.90;99.90;;;;;;5076012;28;20048;-69
2022/11/25 01:36:15;;;;;;;19.98;4.75;;;7.80;99.90;;;;;;5075383;28;20049;-69
2022/11/25 01:38:42;;;;;;;21.58;4.70;;;7.80;99.90;;;;;;5075309;28;20041;-70
2022/11/25 01:41:10;;;;;;;17.77;4.75;;;7.90;99.90;;;;;;5075275;28;20048;-70
2022/11/25 01:43:36;;;;;;;20.90;4.75;;;7.90;99.90;;;;;;5076413;28;20043;-70
2022/11/25 01:46:24;;;;;;;14.27;3.80;;;7.90;99.90;;;;;;5075256;28;20044;-70
2022/11/25 01:49:00;;;;;;;19.38;4.30;;;7.90;99.90;;;;;;5075375;28;20040;-70
2022/11/25 01:51:44;;;;;;;20.27;3.45;;;8.00;99.90;;;;;;5075062;28;20045;-70
2022/11/25 01:54:12;;;;;;;17.85;4.15;;;7.90;99.90;;;;;;5074967;28;20075;-70
2022/11/25 01:56:45;;;;;;;20.83;3.92;;;8.00;99.90;;;;;;5075194;28;20054;-70
2022/11/25 01:59:12;;;;;;;13.68;3.45;;;8.00;99.90;;;;;;5074994;28;20040;-70
2022/11/25 02:01:38;;;;;;;16.83;4.38;;;8.00;99.90;;;;;;5074867;28;20047;-70
2022/11/25 02:04:05;;;;;;;21.25;4.72;;;8.00;99.90;;;;;;5074751;28;20048;-70
2022/11/25 02:06:37;;;;;;;20.08;4.07;;;8.00;99.90;;;;;;5074704;28;20040;-70
2022/11/25 02:09:07;;;;;;;15.35;4.15;;;8.00;99.90;;;;;;5074785;28;20044;-70
2022/11/25 02:11:37;;;;;;;23.33;5.13;;;8.00;99.90;;;;;;5076401;28;20048;-70
2022/11/25 02:14:03;;;;;;;16.00;4.40;;;8.00;99.90;;;;;;5074622;28;20051;-70
2022/11/25 02:16:29;;;;;;;17.67;4.75;;;8.00;99.90;;;;;;5074890;28;20058;-70
2022/11/25 02:18:54;;;;;;;18.35;4.18;;;8.00;99.90;;;;;;5074834;28;20575;-70
2022/11/25 02:21:30;;;;;;;20.67;4.20;;;8.00;99.90;;;;;;5074539;28;20512;-70
2022/11/25 02:24:03;;;;;;;21.65;4.93;;;8.00;99.90;;;;;;5057803;28;20057;-70
2022/11/25 02:26:30;;;;;;;21.50;4.78;;;8.00;99.90;;;;;;5074402;28;20508;-70
2022/11/25 02:28:56;;;;;;;21.23;5.05;;;8.00;99.90;;;;;;5074708;28;20052;-70
2022/11/25 02:31:22;;;;;;;22.67;4.50;;;8.00;99.90;;;;;;5073512;28;20045;-70
2022/11/25 02:33:48;;;;;;;18.65;5.03;;;8.00;99.90;;;;;;5074246;28;20043;-70
2022/11/25 02:36:17;;;;;;;17.65;5.00;;;8.00;99.90;;;;;;5075567;28;20400;-70
2022/11/25 02:38:47;;;;;;;28.80;5.97;;;8.00;99.90;;;;;;5075466;28;20064;-70
2022/11/25 02:41:18;;;;;;;21.80;5.35;;;8.00;99.90;;;;;;5074157;28;20045;-70
2022/11/25 02:43:44;;;;;;;18.63;4.88;;;8.00;99.90;;;;;;5074093;28;20047;-70
2022/11/25 02:46:12;;;;;;;19.25;5.50;;;8.00;99.90;;;;;;5073839;28;20044;-70
2022/11/25 02:48:40;;;;;;;17.25;5.18;;;8.00;99.90;;;;;;5074817;28;20354;-70
2022/11/25 02:51:07;;;;;;;18.05;5.78;;;8.00;99.90;;;;;;5075566;28;20052;-70
2022/11/25 02:53:33;;;;;;;22.80;5.85;;;8.00;99.90;;;;;;5073940;28;20106;-70
2022/11/25 02:55:59;;;;;;;19.58;4.50;;;8.00;99.90;;;;;;5075170;28;20070;-70
2022/11/25 02:58:24;;;;;;;20.58;5.35;;;8.00;99.90;;;;;;5074094;28;20119;-70
2022/11/25 03:00:50;;;;;;;19.15;4.95;;;8.00;99.90;;;;;;5074060;28;20445;-70
2022/11/25 03:03:16;;;;;;;24.73;5.88;;;8.00;99.90;;;;;;5075226;28;20037;-70
2022/11/25 03:05:41;;;;;;;22.67;5.85;;;8.00;99.90;;;;;;5073621;28;20059;-70
2022/11/25 03:08:08;;;;;;;21.08;5.40;;;8.00;99.90;;;;;;5073924;28;20094;-70
2022/11/25 03:10:34;;;;;;;24.20;5.93;;;8.00;99.90;;;;;;5075123;28;20037;-70
2022/11/25 03:13:00;;;;;;;20.00;5.57;;;8.00;99.90;;;;;;5073501;28;20040;-70
2022/11/25 03:15:26;;;;;;;21.58;5.80;;;8.00;99.90;;;;;;5073495;28;20043;-70
2022/11/25 03:17:52;;;;;;;21.98;5.53;;;8.00;99.90;;;;;;5075283;28;20033;-70
2022/11/25 03:20:18;;;;;;;18.75;5.28;;;8.00;99.90;;;;;;5074942;28;20485;-70
2022/11/25 03:22:44;;;;;;;22.08;5.82;;;8.00;99.90;;;;;;5073336;28;20137;-70
2022/11/25 03:25:11;;;;;;;22.83;5.63;;;8.00;99.90;;;;;;5073333;28;20094;-70
2022/11/25 03:27:37;;;;;;;15.57;5.20;;;8.10;99.90;;;;;;5073250;28;20041;-70
2022/11/25 03:30:07;;;;;;;22.38;5.57;;;8.00;99.90;;;;;;5073223;28;20113;-70
2022/11/25 03:32:32;;;;;;;22.08;5.85;;;8.10;99.90;;;;;;5073030;28;20089;-70
2022/11/25 03:34:58;;;;;;;22.77;6.18;;;8.10;99.90;;;;;;5073130;28;20405;-70
2022/11/25 03:37:23;;;;;;;23.90;5.80;;;8.10;99.90;;;;;;5074889;28;20152;-70
2022/11/25 03:39:49;;;;;;;21.75;6.15;;;8.10;99.90;;;;;;5073038;28;20059;-70
2022/11/25 03:42:14;;;;;;;19.48;5.35;;;8.10;99.90;;;;;;5074151;28;20044;-70
2022/11/25 03:44:40;;;;;;;29.23;6.47;;;8.10;99.90;;;;;;5073036;28;20383;-70
2022/11/25 03:47:06;;;;;;;27.52;7.47;;;8.10;99.90;;;;;;5072808;28;20076;-70
2022/11/25 03:49:31;;;;;;;25.13;6.38;;;8.10;99.90;;;;;;5073059;28;20071;-70
2022/11/25 03:51:57;;;;;;;20.15;5.70;;;8.20;99.90;;;;;;5072769;28;20497;-70
2022/11/25 03:54:23;;;;;;;25.75;6.38;;;8.10;99.90;;;;;;5072644;28;20036;-70
2022/11/25 03:56:48;;;;;;;21.23;6.00;;;8.20;99.90;;;;;;5072701;28;20041;-70
2022/11/25 03:59:14;;;;;;;23.48;6.15;;;8.20;99.90;;;;;;5072609;28;20051;-70
2022/11/25 04:01:39;;;;;;;24.05;6.57;;;8.20;99.90;;;;;;5074371;28;20041;-70
2022/11/25 04:04:05;;;;;;;27.15;7.10;;;8.20;99.90;;;;;;5055888;28;20044;-70
2022/11/25 04:06:31;;;;;;;26.00;6.63;;;8.20;99.90;;;;;;5073948;28;20079;-70
2022/11/25 04:08:57;;;;;;;20.45;6.20;;;8.20;99.90;;;;;;5072471;28;20386;-70
2022/11/25 04:12:45;;;;;;;26.50;6.40;;;8.20;99.90;;;;;;5072642;28;20482;-70
2022/11/25 04:14:11;;;;;;;24.65;6.97;;;8.20;99.90;;;;;;5072432;28;20127;-70
2022/11/25 04:16:37;;;;;;;26.58;7.63;;;8.20;99.90;;;;;;5072332;28;20119;-70
2022/11/25 04:19:02;;;;;;;26.77;6.70;;;8.20;99.90;;;;;;5072605;28;20051;-70
2022/11/25 04:21:28;;;;;;;23.85;6.47;;;8.20;99.90;;;;;;5072544;28;20463;-70
2022/11/25 04:23:54;;;;;;;24.45;6.88;;;8.20;99.90;;;;;;5073692;28;20499;-70
2022/11/25 04:26:19;;;;;;;25.33;7.97;;;8.20;99.90;;;;;;5072165;28;20048;-70
2022/11/25 04:28:45;;;;;;;22.52;6.82;;;8.20;99.90;;;;;;5072186;28;20123;-70
2022/11/25 04:31:10;;;;;;;20.85;6.50;;;8.20;99.90;;;;;;5072136;28;20045;-70
2022/11/25 04:33:36;;;;;;;24.33;6.43;;;8.30;99.90;;;;;;5072007;28;20040;-70
2022/11/25 04:36:02;;;;;;;25.95;7.28;;;8.30;99.90;;;;;;5072342;28;20045;-70
2022/11/25 04:38:27;;;;;;;24.38;7.18;;;8.30;99.90;;;;;;5072358;28;20072;-70
2022/11/25 04:40:53;;;;;;;28.13;7.20;;;8.30;99.90;;;;;;5071999;28;20515;-70
2022/11/25 04:43:19;;;;;;;19.33;6.95;;;8.30;99.90;;;;;;5073141;28;20123;-70
2022/11/25 04:45:49;;;;;;;19.92;6.60;;;8.30;99.90;;;;;;5071877;28;20044;-70
2022/11/25 04:48:15;;;;;;;24.77;6.68;;;8.30;99.90;;;;;;5055210;28;20452;-70
2022/11/25 04:50:41;;;;;;;26.73;7.82;;;8.30;99.90;;;;;;5071912;28;20049;-70
2022/11/25 04:53:06;;;;;;;17.83;6.25;;;8.30;99.90;;;;;;5073194;28;20032;-70
2022/11/25 04:55:32;;;;;;;21.38;6.70;;;8.30;99.90;;;;;;5071879;28;20044;-70
2022/11/25 04:57:57;;;;;;;24.17;7.50;;;8.30;99.90;;;;;;5071881;28;20044;-70
2022/11/25 05:00:23;;;;;;;22.35;7.30;;;8.30;99.90;;;;;;5071785;28;20040;-70
2022/11/25 05:02:49;;;;;;;22.98;5.95;;;8.30;99.90;;;;;;5071992;28;20048;-70
2022/11/25 05:05:14;;;;;;;25.05;7.57;;;8.30;99.90;;;;;;5072039;28;20489;-70
2022/11/25 05:07:40;;;;;;;22.38;7.57;;;8.30;99.90;;;;;;5071749;28;20524;-70
2022/11/25 05:10:07;;;;;;;25.30;7.05;;;8.30;99.90;;;;;;5073496;28;20041;-70
2022/11/25 05:12:33;;;;;;;25.67;7.38;;;8.30;99.90;;;;;;5072900;28;20075;-70
2022/11/25 05:14:59;;;;;;;24.25;7.85;;;8.30;99.90;;;;;;5071665;28;20041;-70
2022/11/25 05:17:29;;;;;;;22.30;7.43;;;8.30;99.90;;;;;;5071884;28;20037;-70
2022/11/25 05:19:55;;;;;;;22.08;7.35;;;8.30;99.90;;;;;;5055009;28;20049;-70
2022/11/25 05:22:24;;;;;;;25.38;7.25;;;8.30;99.90;;;;;;5071552;28;20087;-70
2022/11/25 05:24:49;;;;;;;26.17;8.10;;;8.30;99.90;;;;;;5073267;28;20086;-70
2022/11/25 05:27:15;;;;;;;25.52;7.22;;;8.30;99.90;;;;;;5071446;28;20052;-70
2022/11/25 05:29:41;;;;;;;23.13;7.43;;;8.30;99.90;;;;;;5073040;28;20037;-70
2022/11/25 05:32:07;;;;;;;22.05;6.75;;;8.30;99.90;;;;;;5071694;28;20227;-70
2022/11/25 05:34:32;;;;;;;28.77;8.40;;;8.30;99.90;;;;;;5071428;28;20044;-70
2022/11/25 05:36:58;;;;;;;26.75;7.70;;;8.30;99.90;;;;;;5072711;28;20045;-70
2022/11/25 05:39:24;;;;;;;22.75;7.30;;;8.30;99.90;;;;;;5071365;28;20517;-70
2022/11/25 05:41:49;;;;;;;19.80;7.72;;;8.30;99.90;;;;;;5071668;28;20052;-70
2022/11/25 05:44:15;;;;;;;23.65;7.43;;;8.30;99.90;;;;;;5071262;28;20424;-70
2022/11/25 05:46:44;;;;;;;18.73;6.95;;;8.30;99.90;;;;;;5072458;28;20126;-70
2022/11/25 05:49:09;;;;;;;21.67;6.93;;;8.30;99.90;;;;;;5071350;28;20063;-70
2022/11/25 05:51:35;;;;;;;23.88;7.15;;;8.30;99.90;;;;;;5071300;28;20064;-70
2022/11/25 05:54:00;;;;;;;23.95;7.75;;;8.40;99.90;;;;;;5071483;28;20047;-70
2022/11/25 05:56:26;;;;;;;21.27;6.95;;;8.30;99.90;;;;;;5071280;28;20044;-70
2022/11/25 05:58:53;;;;;;;18.00;6.68;;;8.40;99.90;;;;;;5071549;28;20387;-70
2022/11/25 06:01:19;;;;;;;17.23;6.80;;;8.40;99.90;;;;;;5071165;28;20055;-70
2022/11/25 06:03:45;;;;;;;21.17;6.80;;;8.30;99.90;;;;;;5072423;28;20033;-70
2022/11/25 06:06:11;;;;;;;29.95;7.70;;;8.30;99.90;;;;;;5072948;28;20091;-70
2022/11/25 06:08:38;;;;;;;22.42;6.80;;;8.40;99.90;;;;;;5075048;28;20041;-70
2022/11/25 06:11:14;;;;;;;19.30;6.22;;;8.40;99.90;;;;;;5075024;28;20040;-70
2022/11/25 06:13:41;;;;;;;27.00;7.35;;;8.40;99.90;;;;;;5076171;28;20037;-70
2022/11/25 06:16:14;;;;;;;21.50;6.15;;;8.40;99.90;;;;;;5074909;28;20037;-70
2022/11/25 06:18:40;;;;;;;23.10;6.10;;;8.40;99.90;;;;;;5074911;28;20405;-70
2022/11/25 06:21:06;;;;;;;21.88;6.38;;;8.40;99.90;;;;;;5074588;28;20036;-70
2022/11/25 06:23:32;;;;;;;23.85;6.43;;;8.40;99.90;;;;;;5075990;28;20095;-70
2022/11/25 06:26:14;;;;;;;18.75;5.30;;;8.40;99.90;;;;;;5074397;28;20493;-70
2022/11/25 06:28:39;;;;;;;20.73;5.90;;;8.40;99.90;;;;;;5074406;28;20036;-70
2022/11/25 06:31:05;;;;;;;19.20;5.05;;;8.40;99.90;;;;;;5074636;28;20036;-70
2022/11/25 06:33:31;;;;;;;21.42;5.10;;;8.40;99.90;;;;;;5074324;28;20515;-70
2022/11/25 06:35:57;;;;;;;16.73;5.28;;;8.40;99.90;;;;;;5074501;28;20051;-70
2022/11/25 06:38:22;;;;;;;18.63;4.57;;;8.40;99.90;;;;;;5076078;28;20040;-70
2022/11/25 06:40:48;;;;;;;19.08;4.80;;;8.40;99.90;;;;;;5074256;28;20047;-70
2022/11/25 06:43:13;;;;;;;16.50;4.13;;;8.40;99.90;;;;;;5074392;28;20044;-70
2022/11/25 06:45:39;;;;;;;16.23;5.15;;;8.40;99.90;;;;;;5073975;28;20040;-70
2022/11/25 06:48:04;;;;;;;17.13;4.45;;;8.40;99.90;;;;;;5057322;28;20046;-70
2022/11/25 06:50:30;;;;;;;17.58;4.13;;;8.40;99.90;;;;;;5074320;28;20028;-70
2022/11/25 06:52:55;;;;;;;19.20;4.00;;;8.50;99.90;;;;;;5075481;28;20523;-70
2022/11/25 06:55:21;;;;;;;20.58;4.43;;;8.50;99.90;;;;;;5074189;28;20493;-70
2022/11/25 06:57:47;;;;;;;14.50;3.65;;;8.50;99.90;;;;;;5073947;28;20409;-70
2022/11/25 07:00:13;;;;;;;15.07;4.00;;;8.50;99.90;;;;;;5075326;28;20047;-70
2022/11/25 07:02:38;;;;;;;15.13;4.25;;;8.50;99.90;;;;;;5073964;28;20044;-70
2022/11/25 07:05:04;;;;;;;13.18;3.45;;;8.50;99.90;;;;;;5075055;28;20512;-70
2022/11/25 07:07:29;;;;;;;14.93;3.90;;;8.50;99.90;;;;;;5074926;28;20447;-70
2022/11/25 07:09:55;;;;;;;18.88;3.75;;;8.50;99.90;;;;;;5074891;28;20127;-70
2022/11/25 07:12:20;;;;;;;14.45;3.65;;;8.50;99.90;;;;;;5074827;28;20048;-70
2022/11/25 07:14:49;;;;;;;14.05;3.55;;;8.50;99.90;;;;;;5074794;28;20032;-70
2022/11/25 07:17:15;;;;;;;20.63;4.50;;;8.50;99.90;;;;;;5073159;28;20045;-70
2022/11/25 07:19:40;;;;;;;14.05;4.10;;;8.40;99.90;;;;;;5073750;28;20051;-70
2022/11/25 07:22:06;;;;;;;13.32;3.67;;;8.40;99.90;;;;;;5073355;28;20414;-70
2022/11/25 07:24:32;;;;;;;12.65;3.25;;;8.40;99.90;;;;;;5073378;28;20051;-70
2022/11/25 07:26:58;;;;;;;17.13;3.55;;;8.30;99.90;;;;;;5073184;28;20545;-70
2022/11/25 07:29:23;;;;;;;16.83;3.90;;;8.30;99.90;;;;;;5073277;28;20119;-70
2022/11/25 07:31:49;;;;;;;13.00;3.47;;;8.20;99.90;;;;;;5073515;28;20047;-70
2022/11/25 07:34:18;;;;;;;12.63;3.10;;;8.20;99.90;;;;;;5073150;28;20390;-70
2022/11/25 07:36:45;;;;;;;10.95;3.20;;;8.20;99.90;;;;;;5056489;28;20597;-70
2022/11/25 07:39:17;;;;;;;11.40;3.22;;;8.20;99.90;;;;;;5074588;28;20051;-70
2022/11/25 07:41:43;;;;;;;16.25;3.42;;;8.10;99.90;;;;;;5073014;28;20040;-70
2022/11/25 07:44:12;;;;;;;11.93;3.13;;;8.10;99.90;;;;;;5072907;28;20036;-70
2022/11/25 07:46:41;;;;;;;14.18;3.75;;;8.10;99.90;;;;;;5072711;28;20044;-70
2022/11/25 07:49:12;;;;;;;15.38;3.85;;;8.10;99.90;;;;;;5072867;28;20055;-70
2022/11/25 07:51:39;;;;;;;15.15;3.53;;;8.10;99.90;;;;;;5072837;28;20090;-70
2022/11/25 07:54:07;;;;;;;14.23;3.67;;;8.10;99.90;;;;;;5074496;28;20037;-70
2022/11/25 07:56:34;;;;;;;15.45;3.72;;;8.10;99.90;;;;;;5073049;28;20055;-70
2022/11/25 07:59:00;;;;;;;16.60;3.50;;;8.00;99.90;;;;;;5074113;28;20048;-70
2022/11/25 08:01:25;;;;;;;13.77;3.58;;;8.00;99.90;;;;;;5073260;28;20052;-70
2022/11/25 08:03:51;;;;;;;14.82;3.08;;;8.00;99.90;;;;;;5072779;28;20552;-70
2022/11/25 08:06:23;;;;;;;17.40;3.42;;;8.00;99.90;;;;;;5072927;28;20124;-70
2022/11/25 08:08:49;;;;;;;14.55;3.88;;;8.00;99.90;;;;;;5056138;28;20052;-70
2022/11/25 08:11:16;;;;;;;16.08;4.10;;;8.00;99.90;;;;;;5072424;28;20040;-70
2022/11/25 08:13:43;;;;;;;13.88;3.40;;;8.00;99.90;;;;;;5072595;28;20040;-70
2022/11/25 08:16:11;;;;;;;14.27;3.47;;;8.00;99.90;;;;;;5073910;28;20040;-70
2022/11/25 08:18:37;;;;;;;14.55;4.15;;;8.00;99.90;;;;;;5074113;28;20045;-70
2022/11/25 08:21:05;;;;;;;14.18;3.63;;;8.00;99.90;;;;;;5072850;28;20111;-71
2022/11/25 08:23:32;;;;;;;13.82;3.70;;;8.00;99.90;;;;;;5072393;28;20040;-70
2022/11/25 08:26:01;;;;;;;12.65;4.07;;;8.00;99.90;;;;;;5073381;28;20049;-71
2022/11/25 08:28:27;;;;;;;14.02;4.00;;;8.10;99.90;;;;;;5071776;28;20080;-71
2022/11/25 08:30:59;;;;;;;13.40;4.50;;;8.10;99.90;;;;;;5072402;28;20500;-70
2022/11/25 08:33:25;;;;;;;14.32;3.78;;;8.10;99.90;;;;;;5072319;28;20162;-70
2022/11/25 08:35:54;;;;;;;14.68;4.43;;;8.10;99.90;;;;;;5072385;28;20460;-70
2022/11/25 08:38:20;;;;;;;14.48;4.18;;;8.20;99.90;;;;;;5072025;28;20101;-70
2022/11/25 08:40:45;;;;;;;12.57;4.05;;;8.20;99.90;;;;;;5071972;28;20079;-70
2022/11/25 08:43:11;;;;;;;15.10;4.78;;;8.20;99.90;;;;;;5073470;28;20036;-70
2022/11/25 08:45:38;;;;;;;12.85;4.72;;;8.30;99.90;;;;;;5071858;28;20040;-70
2022/11/25 08:48:05;;;;;;;11.70;4.47;;;8.30;99.90;;;;;;5072414;28;20051;-70
2022/11/25 08:50:32;;;;;;;14.57;4.32;;;8.40;99.90;;;;;;5073446;28;20037;-70
2022/11/25 08:52:59;;;;;;;17.90;4.50;;;8.40;99.90;;;;;;5071932;28;20097;-70
2022/11/25 08:55:26;;;;;;;13.18;4.10;;;8.40;99.90;;;;;;5072222;28;20428;-70
2022/11/25 08:57:54;;;;;;;16.42;4.47;;;8.40;99.90;;;;;;5071815;28;20048;-70
2022/11/25 09:00:20;;;;;;;13.38;4.15;;;8.40;99.90;;;;;;5071923;28;20045;-70
2022/11/25 09:02:46;;;;;;;11.73;4.20;;;8.40;99.90;;;;;;5071795;28;20049;-70
2022/11/25 09:05:14;;;;;;;12.07;4.20;;;8.40;99.90;;;;;;5072063;28;20044;-70
2022/11/25 09:07:40;;;;;;;14.63;3.95;;;8.50;99.90;;;;;;5071724;28;20040;-70
2022/11/25 09:10:08;;;;;;;13.35;4.43;;;8.50;99.90;;;;;;5071747;28;20048;-70
2022/11/25 09:12:34;;;;;;;14.30;4.30;;;8.60;99.90;;;;;;5072342;28;20041;-70
2022/11/25 09:15:02;;;;;;;11.57;4.28;;;8.60;99.90;;;;;;5071936;28;20119;-70
2022/11/25 09:17:28;;;;;;;12.07;4.43;;;8.60;99.90;;;;;;5071610;28;20520;-70
2022/11/25 09:19:53;;;;;;;14.18;5.20;;;8.70;99.90;;;;;;5071600;28;20047;-70
2022/11/25 09:22:19;;;;;;;12.18;4.63;;;8.70;99.90;;;;;;5071435;28;20072;-70
2022/11/25 09:24:45;;;;;;;12.20;4.32;;;8.70;99.90;;;;;;5071538;28;20052;-70
2022/11/25 09:27:10;;;;;;;12.57;4.85;;;8.80;99.90;;;;;;5071498;28;20041;-70
2022/11/25 09:29:36;;;;;;;10.93;4.18;;;8.70;99.90;;;;;;5072750;28;20044;-70
2022/11/25 09:32:01;;;;;;;12.32;4.13;;;8.80;99.90;;;;;;5071502;28;20508;-70
2022/11/25 09:34:27;;;;;;;11.02;4.18;;;8.80;99.90;;;;;;5071729;28;20098;-70
2022/11/25 09:36:53;;;;;;;12.20;4.07;;;8.90;99.90;;;;;;5071674;28;20405;-70
2022/11/25 09:39:18;;;;;;;10.18;4.20;;;9.00;99.90;;;;;;5072154;28;20556;-70
2022/11/25 09:48:14;;;;;;;14.88;4.15;;;9.10;99.90;;;;;;5075191;28;20048;-71
2022/11/25 09:51:03;;;;;;;10.95;3.63;;;9.20;99.90;;;;;;5075195;28;20431;-70
2022/11/25 09:53:41;;;;;;;10.35;3.78;;;9.20;99.90;;;;;;5075328;28;20048;-71
2022/11/25 09:56:18;;;;;;;10.30;4.50;;;9.20;99.90;;;;;;5075267;28;20040;-71
2022/11/25 09:59:01;;;;;;;11.80;3.67;;;9.30;99.90;;;;;;5075909;28;20037;-71
2022/11/25 10:01:29;;;;;;;8.60;3.40;;;9.30;99.90;;;;;;5058933;28;20123;-71
2022/11/25 10:03:59;;;;;;;12.40;3.97;;;9.30;99.90;;;;;;5074845;28;20037;-71
2022/11/25 10:06:31;;;;;;;11.23;3.47;;;9.40;99.90;;;;;;5074778;28;20124;-71
2022/11/25 10:09:03;;;;;;;11.73;4.15;;;9.50;99.90;;;;;;5074869;28;20505;-71
2022/11/25 10:11:47;;;;;;;10.43;3.40;;;9.50;99.90;;;;;;5074808;28;20040;-71
2022/11/25 10:14:37;;;;;;;11.63;3.90;;;9.50;99.90;;;;;;5074764;28;20041;-71
2022/11/25 10:17:11;;;;;;;14.35;4.13;;;9.60;99.90;;;;;;5074842;28;20119;-71
2022/11/25 10:20:04;;;;;;;14.50;4.25;;;9.60;99.90;;;;;;5074862;28;20091;-71
2022/11/25 10:22:45;;;;;;;10.52;3.42;;;9.70;99.90;;;;;;5074932;28;20044;-71
2022/11/25 10:25:28;;;;;;;11.45;4.18;;;9.70;99.90;;;;;;5074498;28;20563;-75
2022/11/25 10:28:15;;;;;;;11.75;3.88;;;9.80;99.90;;;;;;5074460;28;20076;-75
2022/11/25 10:30:59;;;;;;;12.27;3.45;;;9.80;99.90;;;;;;5074732;28;20076;-75
2022/11/25 10:33:29;;;;;;;11.88;3.47;;;9.90;99.90;;;;;;5074611;28;20384;-75
2022/11/25 10:36:04;;;;;;;13.32;2.97;;;9.90;99.90;;;;;;5057642;28;20036;-71
2022/11/25 10:38:42;;;;;;;10.90;3.50;;;10.00;99.90;;;;;;5074353;28;20444;-71
2022/11/25 10:41:14;;;;;;;10.35;3.13;;;10.00;99.90;;;;;;5074270;28;20044;-71
2022/11/25 10:43:41;;;;;;;9.43;2.97;;;10.00;99.90;;;;;;5074422;28;20048;-71
2022/11/25 10:46:30;;;;;;;9.35;2.72;;;10.10;99.90;;;;;;5074221;28;20083;-70
2022/11/25 10:49:06;;;;;;;10.25;3.17;;;10.10;99.90;;;;;;5053712;28;20135;-70
2022/11/25 10:51:36;;;;;;;11.27;3.08;;;10.20;99.90;;;;;;5073360;28;20440;-70
2022/11/25 10:54:14;;;;;;;10.30;3.58;;;10.30;99.90;;;;;;5073936;28;20374;-70
2022/11/25 10:56:46;;;;;;;11.43;3.15;;;10.30;99.90;;;;;;5073980;28;20048;-71
2022/11/25 10:59:33;;;;;;;11.85;3.30;;;10.40;99.90;;;;;;5075422;28;20040;-71
2022/11/25 11:02:19;;;;;;;10.15;3.13;;;10.40;99.90;;;;;;5075696;28;20044;-71
2022/11/25 11:05:07;;;;;;;16.05;3.50;;;10.40;99.90;;;;;;5073801;28;20405;-70
2022/11/25 11:07:36;;;;;;;9.20;3.20;;;10.60;99.90;;;;;;5075152;28;20489;-71
2022/11/25 11:10:16;;;;;;;9.15;2.92;;;10.70;99.90;;;;;;5073689;28;20044;-72
2022/11/25 11:13:00;;;;;;;8.38;2.38;;;10.90;99.90;;;;;;5073865;28;20052;-72
2022/11/25 11:15:46;;;;;;;11.52;2.88;;;10.90;99.90;;;;;;5074084;28;20107;-72
2022/11/25 11:18:23;;;;;;;10.00;2.83;;;10.90;99.90;;;;;;5073566;28;20045;-72
2022/11/25 11:20:52;;;;;;;13.50;3.22;;;11.00;99.90;;;;;;5074029;28;20084;-72
2022/11/25 11:23:18;;;;;;;10.85;2.67;;;11.10;99.90;;;;;;5073341;28;20048;-72
2022/11/25 11:25:55;;;;;;;12.63;2.88;;;11.30;99.90;;;;;;5073361;28;20536;-72
2022/11/25 11:28:33;;;;;;;11.75;2.72;;;11.30;99.90;;;;;;5073355;28;20044;-71
2022/11/25 11:31:06;;;;;;;11.23;2.92;;;11.40;99.90;;;;;;5073639;28;20071;-71
2022/11/25 11:33:47;;;;;;;12.77;2.60;;;11.70;99.90;;;;;;5073146;28;20052;-71
2022/11/25 11:36:31;;;;;;;8.75;2.47;;;11.90;99.90;;;;;;5073190;28;20036;-71
2022/11/25 11:39:34;;;;;;;14.02;3.20;;;12.00;99.90;;;;;;5056874;28;20072;-72
2022/11/25 11:42:10;;;;;;;9.60;2.78;;;12.40;99.90;;;;;;5073073;28;20090;-72
2022/11/25 11:44:59;;;;;;;12.07;2.72;;;12.60;99.90;;;;;;5074543;28;20044;-72
2022/11/25 11:47:36;;;;;;;7.88;2.78;;;12.50;99.90;;;;;;5067357;28;20056;-72
2022/11/25 11:50:27;;;;;;;8.55;2.67;;;12.40;99.90;;;;;;5073183;28;20040;-71
2022/11/25 11:53:13;;;;;;;10.77;3.13;;;12.20;99.90;;;;;;5072786;28;20041;-71
2022/11/25 11:55:50;;;;;;;14.48;2.78;;;12.10;99.90;;;;;;5072818;28;20044;-71
2022/11/25 11:58:48;;;;;;;14.18;3.25;;;12.10;99.90;;;;;;5072803;28;20040;-71
2022/11/25 12:01:38;;;;;;;12.45;2.80;;;12.10;99.90;;;;;;5050632;28;20052;-71
2022/11/25 12:04:29;;;;;;;7.68;2.30;;;12.10;99.90;;;;;;5071898;28;20040;-71
2022/11/25 12:07:02;;;;;;;11.05;2.70;;;12.10;99.90;;;;;;5072769;28;20110;-71
2022/11/25 12:09:31;;;;;;;11.50;2.58;;;12.50;99.90;;;;;;5072556;28;20074;-71
2022/11/25 12:12:03;;;;;;;12.45;3.65;;;13.50;99.90;;;;;;5072480;28;20124;-71
2022/11/25 12:14:41;;;;;;;12.35;2.55;;;13.80;99.90;;;;;;5072493;28;20079;-71
2022/11/25 12:17:24;;;;;;;13.38;2.67;;;13.40;99.90;;;;;;5072390;28;20076;-71
2022/11/25 12:20:06;;;;;;;12.75;2.83;;;13.00;99.90;;;;;;5073702;28;20083;-71
2022/11/25 12:22:43;;;;;;;9.15;2.38;;;12.60;99.90;;;;;;5072385;28;20497;-71
2022/11/25 12:25:35;;;;;;;10.57;3.10;;;12.20;99.90;;;;;;5072316;28;20041;-71
2022/11/25 12:28:28;;;;;;;10.57;2.42;;;12.00;99.90;;;;;;5072157;28;20044;-71
2022/11/25 12:31:02;;;;;;;11.38;2.63;;;11.90;99.90;;;;;;5072428;28;20561;-71
2022/11/25 12:34:20;;;;;;;9.68;2.55;;;11.90;99.90;;;;;;5072373;28;20098;-71
2022/11/25 12:36:47;;;;;;;10.63;2.60;;;12.00;99.90;;;;;;5050176;28;20052;-72
2022/11/25 12:39:31;;;;;;;13.80;3.20;;;13.00;99.90;;;;;;5072069;28;20118;-72
2022/11/25 12:42:00;;;;;;;13.88;2.70;;;13.60;99.90;;;;;;5073350;28;20047;-72
2022/11/25 12:44:39;;;;;;;11.52;2.50;;;13.60;99.90;;;;;;5072183;28;20167;-71
2022/11/25 12:47:09;;;;;;;11.98;2.90;;;13.40;99.90;;;;;;5071960;28;20044;-71
2022/11/25 12:49:45;;;;;;;10.82;2.65;;;13.20;99.90;;;;;;5072276;28;20040;-71
2022/11/25 12:52:38;;;;;;;12.90;2.50;;;13.00;99.90;;;;;;5071897;28;20493;-71
2022/11/25 12:55:07;;;;;;;14.05;2.80;;;12.90;99.90;;;;;;5071911;28;20059;-71
2022/11/25 12:58:10;;;;;;;10.60;2.70;;;12.70;99.90;;;;;;5072010;28;20048;-71
2022/11/25 13:00:52;;;;;;;18.05;3.47;;;12.70;99.90;;;;;;5072109;28;20091;-71
2022/11/25 13:03:48;;;;;;;11.15;2.45;;;12.70;99.90;;;;;;5071742;28;20083;-71
2022/11/25 13:06:32;;;;;;;11.85;2.70;;;12.60;99.90;;;;;;5071756;28;20040;-72
2022/11/25 13:09:24;;;;;;;14.68;2.47;;;12.70;99.90;;;;;;5071808;28;20083;-71